Aviation Digital Data Service (ADDS)

Output produced by METARs form (0518 UTC 25 May 2018)
found at http://www.aviationweather.gov/adds/metars/
 
FYWE 250500Z 19006KT CAVOK 11/01 Q1025
FYWH 250500Z 20004KT CAVOK 08/M01 Q1025 NOSIG
TAF FYWH 250400Z 2506/2606 21005KT CAVOK 
     BECMG 2507/2509 10005KT 
     BECMG 2518/2520 17004KT
       
TAF FYKT 250400Z 2506/2606 00000KT CAVOK 
     BECMG 2519/2521 15005KT
       
TAF FYWB 250400Z 2506/2606 05004KT 9999 OVC010 
     PROB30 
     TEMPO 2506/2507 3000 BR OVC006 
     BECMG 2507/2509 9999 NSW OVC010 
     BECMG 2509/2511 22008KT CAVOK